sensor_id;sensor_type;location;lat;lon;timestamp;pressure;altitude;pressure_sealevel;temperature
23208;BMP180;11773;52.570;13.052;2022-07-23T00:01:38;101488.00;;;24.10
23208;BMP180;11773;52.570;13.052;2022-07-23T00:04:08;101474.00;;;24.00
23208;BMP180;11773;52.570;13.052;2022-07-23T00:06:37;101465.00;;;24.00
23208;BMP180;11773;52.570;13.052;2022-07-23T00:09:07;101450.00;;;24.00
23208;BMP180;11773;52.570;13.052;2022-07-23T00:11:36;101454.00;;;23.90
23208;BMP180;11773;52.570;13.052;2022-07-23T00:14:06;101462.00;;;23.90
23208;BMP180;11773;52.570;13.052;2022-07-23T00:16:36;101457.00;;;23.90
23208;BMP180;11773;52.570;13.052;2022-07-23T00:19:05;101460.00;;;23.90
23208;BMP180;11773;52.570;13.052;2022-07-23T00:21:35;101464.00;;;23.90
23208;BMP180;11773;52.570;13.052;2022-07-23T00:24:05;101473.00;;;23.80
23208;BMP180;11773;52.570;13.052;2022-07-23T00:26:35;101453.00;;;23.80
23208;BMP180;11773;52.570;13.052;2022-07-23T00:29:04;101469.00;;;23.80
23208;BMP180;11773;52.570;13.052;2022-07-23T00:31:34;101466.00;;;23.80
23208;BMP180;11773;52.570;13.052;2022-07-23T00:34:03;101458.00;;;23.80
23208;BMP180;11773;52.570;13.052;2022-07-23T00:36:33;101443.00;;;23.70
23208;BMP180;11773;52.570;13.052;2022-07-23T00:39:03;101448.00;;;23.70
23208;BMP180;11773;52.570;13.052;2022-07-23T00:41:32;101454.00;;;23.70
23208;BMP180;11773;52.570;13.052;2022-07-23T00:44:26;101456.00;;;23.70
23208;BMP180;11773;52.570;13.052;2022-07-23T00:46:58;101471.00;;;23.70
23208;BMP180;11773;52.570;13.052;2022-07-23T00:49:30;101475.00;;;23.60
23208;BMP180;11773;52.570;13.052;2022-07-23T00:52:02;101487.00;;;23.60
23208;BMP180;11773;52.570;13.052;2022-07-23T00:54:32;101488.00;;;23.60
23208;BMP180;11773;52.570;13.052;2022-07-23T00:57:01;101485.00;;;23.60
23208;BMP180;11773;52.570;13.052;2022-07-23T00:59:31;101474.00;;;23.60
23208;BMP180;11773;52.570;13.052;2022-07-23T01:02:00;101464.00;;;23.60
23208;BMP180;11773;52.570;13.052;2022-07-23T01:04:30;101456.00;;;23.50
23208;BMP180;11773;52.570;13.052;2022-07-23T01:07:00;101462.00;;;23.50
23208;BMP180;11773;52.570;13.052;2022-07-23T01:09:31;101461.00;;;23.50
23208;BMP180;11773;52.570;13.052;2022-07-23T01:12:01;101458.00;;;23.40
23208;BMP180;11773;52.570;13.052;2022-07-23T01:14:30;101478.00;;;23.30
23208;BMP180;11773;52.570;13.052;2022-07-23T01:17:00;101463.00;;;23.30
23208;BMP180;11773;52.570;13.052;2022-07-23T01:19:30;101458.00;;;23.20
23208;BMP180;11773;52.570;13.052;2022-07-23T01:22:03;101467.00;;;23.20
23208;BMP180;11773;52.570;13.052;2022-07-23T01:24:32;101478.00;;;23.20
23208;BMP180;11773;52.570;13.052;2022-07-23T01:27:02;101461.00;;;23.20
23208;BMP180;11773;52.570;13.052;2022-07-23T01:29:33;101457.00;;;23.20
23208;BMP180;11773;52.570;13.052;2022-07-23T01:32:03;101442.00;;;23.10
23208;BMP180;11773;52.570;13.052;2022-07-23T01:34:33;101454.00;;;23.10
23208;BMP180;11773;52.570;13.052;2022-07-23T01:37:03;101448.00;;;23.10
23208;BMP180;11773;52.570;13.052;2022-07-23T01:39:32;101443.00;;;23.10
23208;BMP180;11773;52.570;13.052;2022-07-23T01:42:02;101442.00;;;23.10
23208;BMP180;11773;52.570;13.052;2022-07-23T01:44:32;101462.00;;;23.10
23208;BMP180;11773;52.570;13.052;2022-07-23T01:47:01;101451.00;;;23.10
23208;BMP180;11773;52.570;13.052;2022-07-23T01:49:31;101450.00;;;23.10
23208;BMP180;11773;52.570;13.052;2022-07-23T01:52:00;101448.00;;;23.10
23208;BMP180;11773;52.570;13.052;2022-07-23T01:54:33;101457.00;;;23.10
23208;BMP180;11773;52.570;13.052;2022-07-23T01:57:03;101458.00;;;23.10
23208;BMP180;11773;52.570;13.052;2022-07-23T01:59:32;101451.00;;;23.10
23208;BMP180;11773;52.570;13.052;2022-07-23T02:02:03;101448.00;;;23.10
23208;BMP180;11773;52.570;13.052;2022-07-23T02:04:33;101441.00;;;23.10
23208;BMP180;11773;52.570;13.052;2022-07-23T02:07:06;101440.00;;;23.10
23208;BMP180;11773;52.570;13.052;2022-07-23T02:09:36;101429.00;;;23.10
23208;BMP180;11773;52.570;13.052;2022-07-23T02:12:06;101436.00;;;23.10
23208;BMP180;11773;52.570;13.052;2022-07-23T02:14:35;101454.00;;;23.10
23208;BMP180;11773;52.570;13.052;2022-07-23T02:17:06;101450.00;;;23.10
23208;BMP180;11773;52.570;13.052;2022-07-23T02:19:36;101447.00;;;23.10
23208;BMP180;11773;52.570;13.052;2022-07-23T02:22:05;101435.00;;;23.10
23208;BMP180;11773;52.570;13.052;2022-07-23T02:24:35;101436.00;;;23.10
23208;BMP180;11773;52.570;13.052;2022-07-23T02:27:04;101445.00;;;23.10
23208;BMP180;11773;52.570;13.052;2022-07-23T02:29:34;101428.00;;;23.10
23208;BMP180;11773;52.570;13.052;2022-07-23T02:32:04;101439.00;;;23.10
23208;BMP180;11773;52.570;13.052;2022-07-23T02:34:35;101415.00;;;23.10
23208;BMP180;11773;52.570;13.052;2022-07-23T02:37:04;101428.00;;;23.10
23208;BMP180;11773;52.570;13.052;2022-07-23T02:39:34;101423.00;;;23.10
23208;BMP180;11773;52.570;13.052;2022-07-23T02:42:04;101422.00;;;23.10
23208;BMP180;11773;52.570;13.052;2022-07-23T02:44:34;101430.00;;;23.10
23208;BMP180;11773;52.570;13.052;2022-07-23T02:47:03;101447.00;;;23.10
23208;BMP180;11773;52.570;13.052;2022-07-23T02:49:33;101444.00;;;23.10
23208;BMP180;11773;52.570;13.052;2022-07-23T02:52:03;101434.00;;;23.10
23208;BMP180;11773;52.570;13.052;2022-07-23T02:54:33;101438.00;;;23.10
23208;BMP180;11773;52.570;13.052;2022-07-23T02:57:04;101438.00;;;23.10
23208;BMP180;11773;52.570;13.052;2022-07-23T02:59:34;101448.00;;;23.10
23208;BMP180;11773;52.570;13.052;2022-07-23T03:02:04;101440.00;;;23.00
23208;BMP180;11773;52.570;13.052;2022-07-23T03:04:33;101430.00;;;23.00
23208;BMP180;11773;52.570;13.052;2022-07-23T03:07:03;101438.00;;;23.10
23208;BMP180;11773;52.570;13.052;2022-07-23T03:09:32;101431.00;;;23.00
23208;BMP180;11773;52.570;13.052;2022-07-23T03:12:02;101439.00;;;23.00
23208;BMP180;11773;52.570;13.052;2022-07-23T03:14:33;101446.00;;;23.00
23208;BMP180;11773;52.570;13.052;2022-07-23T03:17:03;101450.00;;;23.00
23208;BMP180;11773;52.570;13.052;2022-07-23T03:19:32;101447.00;;;23.00
23208;BMP180;11773;52.570;13.052;2022-07-23T03:22:02;101458.00;;;23.00
23208;BMP180;11773;52.570;13.052;2022-07-23T03:24:32;101467.00;;;23.00
23208;BMP180;11773;52.570;13.052;2022-07-23T03:27:23;101450.00;;;23.00
23208;BMP180;11773;52.570;13.052;2022-07-23T03:29:56;101458.00;;;23.00
23208;BMP180;11773;52.570;13.052;2022-07-23T03:32:26;101467.00;;;23.00
23208;BMP180;11773;52.570;13.052;2022-07-23T03:34:56;101470.00;;;23.00
23208;BMP180;11773;52.570;13.052;2022-07-23T03:37:26;101486.00;;;23.00
23208;BMP180;11773;52.570;13.052;2022-07-23T03:39:56;101487.00;;;23.00
23208;BMP180;11773;52.570;13.052;2022-07-23T03:42:27;101519.00;;;23.00
23208;BMP180;11773;52.570;13.052;2022-07-23T03:44:56;101500.00;;;23.00
23208;BMP180;11773;52.570;13.052;2022-07-23T03:47:26;101509.00;;;23.10
23208;BMP180;11773;52.570;13.052;2022-07-23T03:49:55;101502.00;;;23.10
23208;BMP180;11773;52.570;13.052;2022-07-23T03:52:25;101504.00;;;23.10
23208;BMP180;11773;52.570;13.052;2022-07-23T03:54:54;101504.00;;;23.00
23208;BMP180;11773;52.570;13.052;2022-07-23T03:57:24;101490.00;;;23.00
23208;BMP180;11773;52.570;13.052;2022-07-23T03:59:54;101467.00;;;23.00
23208;BMP180;11773;52.570;13.052;2022-07-23T04:02:24;101434.00;;;23.00
23208;BMP180;11773;52.570;13.052;2022-07-23T04:04:53;101433.00;;;23.00
23208;BMP180;11773;52.570;13.052;2022-07-23T04:07:23;101424.00;;;23.00
23208;BMP180;11773;52.570;13.052;2022-07-23T04:09:53;101413.00;;;23.00
23208;BMP180;11773;52.570;13.052;2022-07-23T04:12:23;101426.00;;;23.00
23208;BMP180;11773;52.570;13.052;2022-07-23T04:14:52;101437.00;;;22.90
23208;BMP180;11773;52.570;13.052;2022-07-23T04:17:22;101442.00;;;22.90
23208;BMP180;11773;52.570;13.052;2022-07-23T04:19:52;101436.00;;;22.90
23208;BMP180;11773;52.570;13.052;2022-07-23T04:22:21;101443.00;;;22.80
23208;BMP180;11773;52.570;13.052;2022-07-23T04:24:51;101482.00;;;22.80
23208;BMP180;11773;52.570;13.052;2022-07-23T04:27:20;101477.00;;;22.80
23208;BMP180;11773;52.570;13.052;2022-07-23T04:29:50;101480.00;;;22.80
23208;BMP180;11773;52.570;13.052;2022-07-23T04:32:19;101491.00;;;22.80
23208;BMP180;11773;52.570;13.052;2022-07-23T04:34:49;101479.00;;;22.80
23208;BMP180;11773;52.570;13.052;2022-07-23T04:37:18;101482.00;;;22.80
23208;BMP180;11773;52.570;13.052;2022-07-23T04:39:48;101480.00;;;22.80
23208;BMP180;11773;52.570;13.052;2022-07-23T04:42:18;101456.00;;;22.80
23208;BMP180;11773;52.570;13.052;2022-07-23T04:44:47;101446.00;;;22.80
23208;BMP180;11773;52.570;13.052;2022-07-23T04:47:17;101460.00;;;22.80
23208;BMP180;11773;52.570;13.052;2022-07-23T04:49:48;101454.00;;;22.80
23208;BMP180;11773;52.570;13.052;2022-07-23T04:52:17;101476.00;;;22.80
23208;BMP180;11773;52.570;13.052;2022-07-23T04:54:47;101460.00;;;22.80
23208;BMP180;11773;52.570;13.052;2022-07-23T04:57:17;101478.00;;;22.80
23208;BMP180;11773;52.570;13.052;2022-07-23T04:59:46;101451.00;;;22.80
23208;BMP180;11773;52.570;13.052;2022-07-23T05:02:16;101451.00;;;22.80
23208;BMP180;11773;52.570;13.052;2022-07-23T05:04:45;101441.00;;;22.80
23208;BMP180;11773;52.570;13.052;2022-07-23T05:07:15;101449.00;;;22.80
23208;BMP180;11773;52.570;13.052;2022-07-23T05:09:45;101465.00;;;22.80
23208;BMP180;11773;52.570;13.052;2022-07-23T05:12:14;101475.00;;;22.80
23208;BMP180;11773;52.570;13.052;2022-07-23T05:14:44;101471.00;;;22.70
23208;BMP180;11773;52.570;13.052;2022-07-23T05:17:13;101461.00;;;22.70
23208;BMP180;11773;52.570;13.052;2022-07-23T05:19:43;101456.00;;;22.70
23208;BMP180;11773;52.570;13.052;2022-07-23T05:22:12;101440.00;;;22.70
23208;BMP180;11773;52.570;13.052;2022-07-23T05:24:42;101455.00;;;22.70
23208;BMP180;11773;52.570;13.052;2022-07-23T05:27:11;101454.00;;;22.70
23208;BMP180;11773;52.570;13.052;2022-07-23T05:29:41;101454.00;;;22.70
23208;BMP180;11773;52.570;13.052;2022-07-23T05:32:11;101461.00;;;22.70
23208;BMP180;11773;52.570;13.052;2022-07-23T05:34:40;101470.00;;;22.70
23208;BMP180;11773;52.570;13.052;2022-07-23T05:37:10;101465.00;;;22.70
23208;BMP180;11773;52.570;13.052;2022-07-23T05:39:39;101470.00;;;22.70
23208;BMP180;11773;52.570;13.052;2022-07-23T05:42:09;101487.00;;;22.70
23208;BMP180;11773;52.570;13.052;2022-07-23T05:44:38;101496.00;;;22.70
23208;BMP180;11773;52.570;13.052;2022-07-23T05:47:08;101501.00;;;22.70
23208;BMP180;11773;52.570;13.052;2022-07-23T05:49:38;101492.00;;;22.80
23208;BMP180;11773;52.570;13.052;2022-07-23T05:52:08;101482.00;;;22.70
23208;BMP180;11773;52.570;13.052;2022-07-23T05:54:38;101472.00;;;22.80
23208;BMP180;11773;52.570;13.052;2022-07-23T05:57:07;101474.00;;;22.80
23208;BMP180;11773;52.570;13.052;2022-07-23T05:59:37;101476.00;;;22.80
23208;BMP180;11773;52.570;13.052;2022-07-23T06:02:07;101464.00;;;22.80
23208;BMP180;11773;52.570;13.052;2022-07-23T06:04:36;101468.00;;;22.80
23208;BMP180;11773;52.570;13.052;2022-07-23T06:07:06;101479.00;;;22.80
23208;BMP180;11773;52.570;13.052;2022-07-23T06:09:35;101469.00;;;22.80
23208;BMP180;11773;52.570;13.052;2022-07-23T06:12:06;101469.00;;;22.80
23208;BMP180;11773;52.570;13.052;2022-07-23T06:14:35;101480.00;;;22.80
23208;BMP180;11773;52.570;13.052;2022-07-23T06:17:05;101470.00;;;22.80
23208;BMP180;11773;52.570;13.052;2022-07-23T06:19:34;101472.00;;;22.80
23208;BMP180;11773;52.570;13.052;2022-07-23T06:22:04;101480.00;;;22.80
23208;BMP180;11773;52.570;13.052;2022-07-23T06:24:34;101490.00;;;22.80
23208;BMP180;11773;52.570;13.052;2022-07-23T06:27:04;101487.00;;;22.90
23208;BMP180;11773;52.570;13.052;2022-07-23T06:29:33;101485.00;;;22.90
23208;BMP180;11773;52.570;13.052;2022-07-23T06:32:03;101494.00;;;22.90
23208;BMP180;11773;52.570;13.052;2022-07-23T06:34:33;101500.00;;;22.90
23208;BMP180;11773;52.570;13.052;2022-07-23T06:37:02;101492.00;;;22.90
23208;BMP180;11773;52.570;13.052;2022-07-23T06:39:32;101484.00;;;22.90
23208;BMP180;11773;52.570;13.052;2022-07-23T06:42:01;101480.00;;;23.00
23208;BMP180;11773;52.570;13.052;2022-07-23T06:44:31;101478.00;;;23.00
23208;BMP180;11773;52.570;13.052;2022-07-23T06:47:01;101479.00;;;23.00
23208;BMP180;11773;52.570;13.052;2022-07-23T06:49:30;101460.00;;;23.00
23208;BMP180;11773;52.570;13.052;2022-07-23T06:52:00;101470.00;;;23.00
23208;BMP180;11773;52.570;13.052;2022-07-23T06:54:29;101454.00;;;23.00
23208;BMP180;11773;52.570;13.052;2022-07-23T06:56:59;101472.00;;;23.00
23208;BMP180;11773;52.570;13.052;2022-07-23T06:59:29;101466.00;;;23.00
23208;BMP180;11773;52.570;13.052;2022-07-23T07:01:58;101478.00;;;23.00
23208;BMP180;11773;52.570;13.052;2022-07-23T07:04:28;101462.00;;;23.00
23208;BMP180;11773;52.570;13.052;2022-07-23T07:06:58;101481.00;;;23.00
23208;BMP180;11773;52.570;13.052;2022-07-23T07:09:27;101498.00;;;23.00
23208;BMP180;11773;52.570;13.052;2022-07-23T07:11:57;101480.00;;;23.00
23208;BMP180;11773;52.570;13.052;2022-07-23T07:14:27;101483.00;;;23.00
23208;BMP180;11773;52.570;13.052;2022-07-23T07:16:56;101480.00;;;23.00
23208;BMP180;11773;52.570;13.052;2022-07-23T07:19:26;101486.00;;;23.00
23208;BMP180;11773;52.570;13.052;2022-07-23T07:21:56;101474.00;;;23.00
23208;BMP180;11773;52.570;13.052;2022-07-23T07:24:25;101482.00;;;23.10
23208;BMP180;11773;52.570;13.052;2022-07-23T07:26:56;101489.00;;;23.10
23208;BMP180;11773;52.570;13.052;2022-07-23T07:29:26;101503.00;;;23.10
23208;BMP180;11773;52.570;13.052;2022-07-23T07:31:56;101504.00;;;23.10
23208;BMP180;11773;52.570;13.052;2022-07-23T07:34:26;101483.00;;;23.20
23208;BMP180;11773;52.570;13.052;2022-07-23T07:36:55;101474.00;;;23.20
23208;BMP180;11773;52.570;13.052;2022-07-23T07:39:25;101495.00;;;23.20
23208;BMP180;11773;52.570;13.052;2022-07-23T07:44:31;101485.00;;;23.30
23208;BMP180;11773;52.570;13.052;2022-07-23T07:47:00;101489.00;;;23.30
23208;BMP180;11773;52.570;13.052;2022-07-23T07:49:30;101485.00;;;23.30
23208;BMP180;11773;52.570;13.052;2022-07-23T07:52:01;101462.00;;;23.40
23208;BMP180;11773;52.570;13.052;2022-07-23T07:54:31;101448.00;;;23.50
23208;BMP180;11773;52.570;13.052;2022-07-23T07:57:00;101456.00;;;23.60
23208;BMP180;11773;52.570;13.052;2022-07-23T07:59:32;101471.00;;;23.70
23208;BMP180;11773;52.570;13.052;2022-07-23T08:02:02;101470.00;;;23.80
23208;BMP180;11773;52.570;13.052;2022-07-23T08:04:32;101476.00;;;23.90
23208;BMP180;11773;52.570;13.052;2022-07-23T08:07:01;101494.00;;;24.10
23208;BMP180;11773;52.570;13.052;2022-07-23T08:09:31;101485.00;;;24.20
23208;BMP180;11773;52.570;13.052;2022-07-23T08:12:00;101473.00;;;24.30
23208;BMP180;11773;52.570;13.052;2022-07-23T08:14:30;101483.00;;;24.40
23208;BMP180;11773;52.570;13.052;2022-07-23T08:16:59;101486.00;;;24.50
23208;BMP180;11773;52.570;13.052;2022-07-23T08:19:31;101471.00;;;24.60
23208;BMP180;11773;52.570;13.052;2022-07-23T08:22:00;101480.00;;;24.70
23208;BMP180;11773;52.570;13.052;2022-07-23T08:24:30;101495.00;;;24.80
23208;BMP180;11773;52.570;13.052;2022-07-23T08:26:59;101484.00;;;24.90
23208;BMP180;11773;52.570;13.052;2022-07-23T08:29:29;101496.00;;;25.00
23208;BMP180;11773;52.570;13.052;2022-07-23T08:31:59;101485.00;;;25.10
23208;BMP180;11773;52.570;13.052;2022-07-23T08:34:30;101485.00;;;25.20
23208;BMP180;11773;52.570;13.052;2022-07-23T08:36:59;101468.00;;;25.30
23208;BMP180;11773;52.570;13.052;2022-07-23T08:39:29;101463.00;;;25.30
23208;BMP180;11773;52.570;13.052;2022-07-23T08:41:59;101465.00;;;25.40
23208;BMP180;11773;52.570;13.052;2022-07-23T08:44:28;101476.00;;;25.50
23208;BMP180;11773;52.570;13.052;2022-07-23T08:46:58;101455.00;;;25.50
23208;BMP180;11773;52.570;13.052;2022-07-23T08:49:29;101453.00;;;25.60
23208;BMP180;11773;52.570;13.052;2022-07-23T08:52:00;101457.00;;;25.70
23208;BMP180;11773;52.570;13.052;2022-07-23T08:54:31;101451.00;;;25.70
23208;BMP180;11773;52.570;13.052;2022-07-23T08:57:01;101456.00;;;25.70
23208;BMP180;11773;52.570;13.052;2022-07-23T08:59:30;101459.00;;;25.80
23208;BMP180;11773;52.570;13.052;2022-07-23T09:02:00;101463.00;;;25.80
23208;BMP180;11773;52.570;13.052;2022-07-23T09:04:31;101467.00;;;25.90
23208;BMP180;11773;52.570;13.052;2022-07-23T09:07:02;101478.00;;;26.00
23208;BMP180;11773;52.570;13.052;2022-07-23T09:09:32;101476.00;;;26.00
23208;BMP180;11773;52.570;13.052;2022-07-23T09:12:09;101493.00;;;26.10
23208;BMP180;11773;52.570;13.052;2022-07-23T09:14:44;101480.00;;;26.20
23208;BMP180;11773;52.570;13.052;2022-07-23T09:17:18;101484.00;;;26.30
23208;BMP180;11773;52.570;13.052;2022-07-23T09:19:49;101502.00;;;26.30
23208;BMP180;11773;52.570;13.052;2022-07-23T09:22:26;101494.00;;;26.40
23208;BMP180;11773;52.570;13.052;2022-07-23T09:25:16;101495.00;;;26.40
23208;BMP180;11773;52.570;13.052;2022-07-23T09:27:56;101498.00;;;26.40
23208;BMP180;11773;52.570;13.052;2022-07-23T09:30:29;101512.00;;;26.50
23208;BMP180;11773;52.570;13.052;2022-07-23T09:33:14;101506.00;;;26.50
23208;BMP180;11773;52.570;13.052;2022-07-23T09:35:53;101501.00;;;26.60
23208;BMP180;11773;52.570;13.052;2022-07-23T09:38:24;101494.00;;;26.70
23208;BMP180;11773;52.570;13.052;2022-07-23T09:41:09;101506.00;;;26.70
23208;BMP180;11773;52.570;13.052;2022-07-23T09:43:38;101503.00;;;26.80
23208;BMP180;11773;52.570;13.052;2022-07-23T09:46:28;101512.00;;;26.80
23208;BMP180;11773;52.570;13.052;2022-07-23T09:48:57;101497.00;;;26.90
23208;BMP180;11773;52.570;13.052;2022-07-23T09:51:29;101509.00;;;26.90
23208;BMP180;11773;52.570;13.052;2022-07-23T09:54:05;101498.00;;;27.00
23208;BMP180;11773;52.570;13.052;2022-07-23T09:56:37;101511.00;;;27.00
23208;BMP180;11773;52.570;13.052;2022-07-23T09:59:07;101500.00;;;27.00
23208;BMP180;11773;52.570;13.052;2022-07-23T10:01:39;101515.00;;;27.00
23208;BMP180;11773;52.570;13.052;2022-07-23T10:04:13;101506.00;;;27.10
23208;BMP180;11773;52.570;13.052;2022-07-23T10:06:45;101509.00;;;27.10
23208;BMP180;11773;52.570;13.052;2022-07-23T10:09:21;101500.00;;;27.20
23208;BMP180;11773;52.570;13.052;2022-07-23T10:11:50;101483.00;;;27.20
23208;BMP180;11773;52.570;13.052;2022-07-23T10:14:21;101492.00;;;27.30
23208;BMP180;11773;52.570;13.052;2022-07-23T10:16:51;101494.00;;;27.40
23208;BMP180;11773;52.570;13.052;2022-07-23T10:19:22;101497.00;;;27.40
23208;BMP180;11773;52.570;13.052;2022-07-23T10:22:03;101496.00;;;27.50
23208;BMP180;11773;52.570;13.052;2022-07-23T10:25:05;101510.00;;;27.60
23208;BMP180;11773;52.570;13.052;2022-07-23T10:27:58;101500.00;;;27.70
23208;BMP180;11773;52.570;13.052;2022-07-23T10:30:33;101520.00;;;27.70
23208;BMP180;11773;52.570;13.052;2022-07-23T10:36:36;101508.00;;;27.70
23208;BMP180;11773;52.570;13.052;2022-07-23T10:39:14;101503.00;;;27.70
23208;BMP180;11773;52.570;13.052;2022-07-23T10:41:42;101510.00;;;27.70
23208;BMP180;11773;52.570;13.052;2022-07-23T10:44:20;101503.00;;;27.80
23208;BMP180;11773;52.570;13.052;2022-07-23T10:47:03;101495.00;;;27.80
23208;BMP180;11773;52.570;13.052;2022-07-23T10:49:37;101500.00;;;27.90
23208;BMP180;11773;52.570;13.052;2022-07-23T10:52:24;101495.00;;;28.00
23208;BMP180;11773;52.570;13.052;2022-07-23T10:57:55;101494.00;;;28.10
23208;BMP180;11773;52.570;13.052;2022-07-23T11:00:32;101501.00;;;28.20
23208;BMP180;11773;52.570;13.052;2022-07-23T11:03:05;101499.00;;;28.30
23208;BMP180;11773;52.570;13.052;2022-07-23T11:05:45;101503.00;;;28.30
23208;BMP180;11773;52.570;13.052;2022-07-23T11:08:18;101516.00;;;28.30
23208;BMP180;11773;52.570;13.052;2022-07-23T11:11:07;101517.00;;;28.40
23208;BMP180;11773;52.570;13.052;2022-07-23T11:13:29;101511.00;;;28.40
23208;BMP180;11773;52.570;13.052;2022-07-23T11:16:11;101500.00;;;28.40
23208;BMP180;11773;52.570;13.052;2022-07-23T11:18:55;101503.00;;;28.40
23208;BMP180;11773;52.570;13.052;2022-07-23T11:24:17;101501.00;;;28.40
23208;BMP180;11773;52.570;13.052;2022-07-23T11:26:52;101504.00;;;28.50
23208;BMP180;11773;52.570;13.052;2022-07-23T11:32:18;101516.00;;;28.50
23208;BMP180;11773;52.570;13.052;2022-07-23T11:34:43;101503.00;;;28.50
23208;BMP180;11773;52.570;13.052;2022-07-23T11:37:36;101495.00;;;28.60
23208;BMP180;11773;52.570;13.052;2022-07-23T11:40:11;101511.00;;;28.70
23208;BMP180;11773;52.570;13.052;2022-07-23T11:42:57;101506.00;;;28.80
23208;BMP180;11773;52.570;13.052;2022-07-23T11:45:36;101497.00;;;28.80
23208;BMP180;11773;52.570;13.052;2022-07-23T11:48:17;101500.00;;;28.90
23208;BMP180;11773;52.570;13.052;2022-07-23T11:50:47;101509.00;;;28.90
23208;BMP180;11773;52.570;13.052;2022-07-23T11:53:32;101506.00;;;29.00
23208;BMP180;11773;52.570;13.052;2022-07-23T11:56:06;101499.00;;;29.10
23208;BMP180;11773;52.570;13.052;2022-07-23T11:58:36;101500.00;;;29.10
23208;BMP180;11773;52.570;13.052;2022-07-23T12:01:06;101497.00;;;29.20
23208;BMP180;11773;52.570;13.052;2022-07-23T12:03:48;101501.00;;;29.20
23208;BMP180;11773;52.570;13.052;2022-07-23T12:06:10;101509.00;;;29.30
23208;BMP180;11773;52.570;13.052;2022-07-23T12:08:44;101511.00;;;29.30
23208;BMP180;11773;52.570;13.052;2022-07-23T12:11:14;101501.00;;;29.30
23208;BMP180;11773;52.570;13.052;2022-07-23T12:13:44;101507.00;;;29.40
23208;BMP180;11773;52.570;13.052;2022-07-23T12:16:15;101504.00;;;29.40
23208;BMP180;11773;52.570;13.052;2022-07-23T12:18:45;101496.00;;;29.40
23208;BMP180;11773;52.570;13.052;2022-07-23T12:21:15;101499.00;;;29.40
23208;BMP180;11773;52.570;13.052;2022-07-23T12:23:48;101507.00;;;29.40
23208;BMP180;11773;52.570;13.052;2022-07-23T12:26:18;101500.00;;;29.40
23208;BMP180;11773;52.570;13.052;2022-07-23T12:28:53;101490.00;;;29.50
23208;BMP180;11773;52.570;13.052;2022-07-23T12:31:28;101489.00;;;29.40
23208;BMP180;11773;52.570;13.052;2022-07-23T12:33:58;101500.00;;;29.50
23208;BMP180;11773;52.570;13.052;2022-07-23T12:36:38;101490.00;;;29.50
23208;BMP180;11773;52.570;13.052;2022-07-23T12:39:12;101484.00;;;29.50
23208;BMP180;11773;52.570;13.052;2022-07-23T12:41:54;101488.00;;;29.50
23208;BMP180;11773;52.570;13.052;2022-07-23T12:44:24;101492.00;;;29.60
23208;BMP180;11773;52.570;13.052;2022-07-23T12:46:54;101477.00;;;29.60
23208;BMP180;11773;52.570;13.052;2022-07-23T12:49:29;101486.00;;;29.60
23208;BMP180;11773;52.570;13.052;2022-07-23T12:51:59;101473.00;;;29.60
23208;BMP180;11773;52.570;13.052;2022-07-23T12:54:29;101489.00;;;29.70
23208;BMP180;11773;52.570;13.052;2022-07-23T12:56:58;101473.00;;;29.70
23208;BMP180;11773;52.570;13.052;2022-07-23T12:59:31;101476.00;;;29.70
23208;BMP180;11773;52.570;13.052;2022-07-23T13:02:01;101488.00;;;29.80
23208;BMP180;11773;52.570;13.052;2022-07-23T13:04:31;101486.00;;;29.80
23208;BMP180;11773;52.570;13.052;2022-07-23T13:07:03;101491.00;;;29.90
23208;BMP180;11773;52.570;13.052;2022-07-23T13:09:34;101479.00;;;29.90
23208;BMP180;11773;52.570;13.052;2022-07-23T13:12:06;101486.00;;;29.90
23208;BMP180;11773;52.570;13.052;2022-07-23T13:14:39;101473.00;;;30.00
23208;BMP180;11773;52.570;13.052;2022-07-23T13:17:09;101483.00;;;30.00
23208;BMP180;11773;52.570;13.052;2022-07-23T13:19:40;101490.00;;;30.00
23208;BMP180;11773;52.570;13.052;2022-07-23T13:22:09;101489.00;;;30.10
23208;BMP180;11773;52.570;13.052;2022-07-23T13:24:39;101476.00;;;30.10
23208;BMP180;11773;52.570;13.052;2022-07-23T13:27:09;101493.00;;;30.20
23208;BMP180;11773;52.570;13.052;2022-07-23T13:29:41;101496.00;;;30.20
23208;BMP180;11773;52.570;13.052;2022-07-23T13:32:13;101478.00;;;30.20
23208;BMP180;11773;52.570;13.052;2022-07-23T13:34:43;101479.00;;;30.20
23208;BMP180;11773;52.570;13.052;2022-07-23T13:37:13;101492.00;;;30.30
23208;BMP180;11773;52.570;13.052;2022-07-23T13:39:43;101474.00;;;30.30
23208;BMP180;11773;52.570;13.052;2022-07-23T13:42:14;101482.00;;;30.30
23208;BMP180;11773;52.570;13.052;2022-07-23T13:44:44;101490.00;;;30.30
23208;BMP180;11773;52.570;13.052;2022-07-23T13:47:15;101473.00;;;30.30
23208;BMP180;11773;52.570;13.052;2022-07-23T13:49:46;101486.00;;;30.30
23208;BMP180;11773;52.570;13.052;2022-07-23T13:52:15;101476.00;;;30.30
23208;BMP180;11773;52.570;13.052;2022-07-23T13:54:45;101481.00;;;30.40
23208;BMP180;11773;52.570;13.052;2022-07-23T13:57:15;101466.00;;;30.40
23208;BMP180;11773;52.570;13.052;2022-07-23T13:59:45;101468.00;;;30.40
23208;BMP180;11773;52.570;13.052;2022-07-23T14:02:17;101475.00;;;30.40
23208;BMP180;11773;52.570;13.052;2022-07-23T14:04:49;101481.00;;;30.50
23208;BMP180;11773;52.570;13.052;2022-07-23T14:07:19;101484.00;;;30.40
23208;BMP180;11773;52.570;13.052;2022-07-23T14:09:49;101483.00;;;30.40
23208;BMP180;11773;52.570;13.052;2022-07-23T14:12:19;101485.00;;;30.40
23208;BMP180;11773;52.570;13.052;2022-07-23T14:14:51;101489.00;;;30.40
23208;BMP180;11773;52.570;13.052;2022-07-23T14:17:21;101470.00;;;30.50
23208;BMP180;11773;52.570;13.052;2022-07-23T14:19:53;101472.00;;;30.50
23208;BMP180;11773;52.570;13.052;2022-07-23T14:22:22;101467.00;;;30.50